Ferron, Utah
Current Conditions -  °F | °C
As of 1:53 AM on Monday 22 Dec 2014 (Local Time) from KPUC Reporting Station
Scattered Clouds Scattered Clouds  
Wind Chill: 36°   Ceiling: Unl
Heat Index: 43°   Visibility: 10mi
Dew Point: 28°   Wind: 14mph
Humidity: 56%   Direction: 310°NW
Pressure: 29.91"   Gusts: 33mph
Location:  39.09°N, 111.13°W
Report Text: KPUC 220853Z AUTO 31012G29KT 10SM SCT100 06/M02 A2991 RMK AO2 PK WND 33032/0814 SLP140 T00611022 58006
Loading
Personal Weather Stations






























Interactive Weather Map New forecast layout! Learn more

10-Day Weather Forecast

Advertisements
Track Severe Weather on mobile